sensor_id;sensor_type;location;lat;lon;timestamp;pressure;altitude;pressure_sealevel;temperature;humidity
62600;BME280;48671;48.922;2.346;2023-03-04T00:02:06;102432.41;;;5.61;57.01
62600;BME280;48671;48.922;2.346;2023-03-04T00:04:31;102445.38;;;5.67;57.14
62600;BME280;48671;48.922;2.346;2023-03-04T00:06:56;102442.78;;;5.66;57.05
62600;BME280;48671;48.922;2.346;2023-03-04T00:09:22;102454.03;;;5.69;56.85
62600;BME280;48671;48.922;2.346;2023-03-04T00:11:47;102444.53;;;5.68;57.05
62600;BME280;48671;48.922;2.346;2023-03-04T00:14:12;102446.25;;;5.66;56.81
62600;BME280;48671;48.922;2.346;2023-03-04T00:16:38;102444.47;;;5.62;56.49
62600;BME280;48671;48.922;2.346;2023-03-04T00:19:03;102434.06;;;5.54;57.14
62600;BME280;48671;48.922;2.346;2023-03-04T00:21:29;102445.22;;;5.52;56.94
62600;BME280;48671;48.922;2.346;2023-03-04T00:23:55;102465.09;;;5.56;57.41
62600;BME280;48671;48.922;2.346;2023-03-04T00:26:20;102452.13;;;5.50;57.20
62600;BME280;48671;48.922;2.346;2023-03-04T00:28:46;102449.47;;;5.44;57.45
62600;BME280;48671;48.922;2.346;2023-03-04T00:31:11;102448.59;;;5.43;57.22
62600;BME280;48671;48.922;2.346;2023-03-04T00:33:37;102464.06;;;5.42;57.54
62600;BME280;48671;48.922;2.346;2023-03-04T00:36:03;102456.22;;;5.32;57.38
62600;BME280;48671;48.922;2.346;2023-03-04T00:38:28;102451.75;;;5.18;57.52
62600;BME280;48671;48.922;2.346;2023-03-04T00:40:54;102453.44;;;5.15;57.40
62600;BME280;48671;48.922;2.346;2023-03-04T00:43:19;102451.66;;;5.10;58.20
62600;BME280;48671;48.922;2.346;2023-03-04T00:45:44;102462.81;;;5.07;57.58
62600;BME280;48671;48.922;2.346;2023-03-04T00:48:10;102463.69;;;5.08;58.16
62600;BME280;48671;48.922;2.346;2023-03-04T00:50:36;102455.00;;;5.01;58.11
62600;BME280;48671;48.922;2.346;2023-03-04T00:53:02;102470.44;;;5.00;58.60
62600;BME280;48671;48.922;2.346;2023-03-04T00:55:27;102474.63;;;4.88;58.45
62600;BME280;48671;48.922;2.346;2023-03-04T00:57:52;102466.78;;;4.82;58.54
62600;BME280;48671;48.922;2.346;2023-03-04T01:00:18;102474.44;;;4.75;58.52
62600;BME280;48671;48.922;2.346;2023-03-04T01:02:44;102466.56;;;4.65;58.33
62600;BME280;48671;48.922;2.346;2023-03-04T01:05:09;102476.03;;;4.65;59.62
62600;BME280;48671;48.922;2.346;2023-03-04T01:07:35;102470.88;;;4.65;59.31
62600;BME280;48671;48.922;2.346;2023-03-04T01:10:00;102468.19;;;4.59;59.08
62600;BME280;48671;48.922;2.346;2023-03-04T01:12:25;102465.53;;;4.53;59.06
62600;BME280;48671;48.922;2.346;2023-03-04T01:14:52;102480.91;;;4.46;59.93
62600;BME280;48671;48.922;2.346;2023-03-04T01:17:17;102465.38;;;4.42;59.97
62600;BME280;48671;48.922;2.346;2023-03-04T01:19:43;102459.19;;;4.31;60.05
62600;BME280;48671;48.922;2.346;2023-03-04T01:22:08;102451.34;;;4.25;60.36
62600;BME280;48671;48.922;2.346;2023-03-04T01:24:34;102472.09;;;4.32;60.04
62600;BME280;48671;48.922;2.346;2023-03-04T01:27:00;102465.94;;;4.24;59.92
62600;BME280;48671;48.922;2.346;2023-03-04T01:29:26;102466.72;;;4.17;60.31
62600;BME280;48671;48.922;2.346;2023-03-04T01:31:51;102471.00;;;4.18;60.31
62600;BME280;48671;48.922;2.346;2023-03-04T01:34:16;102469.28;;;4.18;60.88
62600;BME280;48671;48.922;2.346;2023-03-04T01:36:42;102454.53;;;4.08;60.59
62600;BME280;48671;48.922;2.346;2023-03-04T01:39:07;102460.59;;;4.12;60.43
62600;BME280;48671;48.922;2.346;2023-03-04T01:41:32;102459.69;;;4.08;61.62
62600;BME280;48671;48.922;2.346;2023-03-04T01:43:59;102445.88;;;4.03;61.24
62600;BME280;48671;48.922;2.346;2023-03-04T01:46:27;102463.16;;;4.09;61.25
62600;BME280;48671;48.922;2.346;2023-03-04T01:48:53;102460.53;;;4.07;61.04
62600;BME280;48671;48.922;2.346;2023-03-04T01:51:20;102442.34;;;3.96;61.08
62600;BME280;48671;48.922;2.346;2023-03-04T01:53:47;102451.84;;;4.01;61.89
62600;BME280;48671;48.922;2.346;2023-03-04T01:56:28;102441.53;;;4.01;60.86
62600;BME280;48671;48.922;2.346;2023-03-04T01:59:15;102448.38;;;3.98;61.75
62600;BME280;48671;48.922;2.346;2023-03-04T02:01:43;102436.41;;;4.01;61.36
62600;BME280;48671;48.922;2.346;2023-03-04T02:04:10;102438.00;;;3.94;62.01
62600;BME280;48671;48.922;2.346;2023-03-04T02:06:37;102443.97;;;3.91;61.39
62600;BME280;48671;48.922;2.346;2023-03-04T02:09:03;102431.94;;;3.90;61.09
62600;BME280;48671;48.922;2.346;2023-03-04T02:11:29;102431.91;;;3.89;61.03
62600;BME280;48671;48.922;2.346;2023-03-04T02:13:54;102440.50;;;3.89;61.84
62600;BME280;48671;48.922;2.346;2023-03-04T02:16:20;102432.66;;;3.82;60.90
62600;BME280;48671;48.922;2.346;2023-03-04T02:18:46;102426.50;;;3.73;62.34
62600;BME280;48671;48.922;2.346;2023-03-04T02:24:01;102444.69;;;3.83;62.46
62600;BME280;48671;48.922;2.346;2023-03-04T02:26:28;102442.03;;;3.78;62.46
62600;BME280;48671;48.922;2.346;2023-03-04T02:28:57;102439.50;;;3.80;61.98
62600;BME280;48671;48.922;2.346;2023-03-04T02:33:56;102432.59;;;3.77;62.37
62600;BME280;48671;48.922;2.346;2023-03-04T02:36:23;102441.22;;;3.82;61.89
62600;BME280;48671;48.922;2.346;2023-03-04T02:38:53;102435.97;;;3.74;62.05
62600;BME280;48671;48.922;2.346;2023-03-04T02:41:24;102448.88;;;3.76;61.73
62600;BME280;48671;48.922;2.346;2023-03-04T02:43:52;102437.56;;;3.69;61.61
62600;BME280;48671;48.922;2.346;2023-03-04T02:46:18;102441.84;;;3.67;62.60
62600;BME280;48671;48.922;2.346;2023-03-04T02:48:43;102431.38;;;3.58;62.15
62600;BME280;48671;48.922;2.346;2023-03-04T02:51:09;102435.63;;;3.55;62.42
62600;BME280;48671;48.922;2.346;2023-03-04T02:53:35;102431.28;;;3.52;62.58
62600;BME280;48671;48.922;2.346;2023-03-04T02:56:00;102425.25;;;3.51;62.64
62600;BME280;48671;48.922;2.346;2023-03-04T02:58:26;102429.63;;;3.56;62.83
62600;BME280;48671;48.922;2.346;2023-03-04T03:00:51;102428.81;;;3.57;63.20
62600;BME280;48671;48.922;2.346;2023-03-04T03:03:17;102421.94;;;3.57;63.09
62600;BME280;48671;48.922;2.346;2023-03-04T03:05:42;102423.66;;;3.57;63.42
62600;BME280;48671;48.922;2.346;2023-03-04T03:08:08;102414.13;;;3.52;62.90
62600;BME280;48671;48.922;2.346;2023-03-04T03:10:34;102417.59;;;3.55;62.97
62600;BME280;48671;48.922;2.346;2023-03-04T03:12:59;102425.31;;;3.55;63.22
62600;BME280;48671;48.922;2.346;2023-03-04T03:15:24;102415.84;;;3.52;63.27
62600;BME280;48671;48.922;2.346;2023-03-04T03:17:50;102409.81;;;3.50;63.25
62600;BME280;48671;48.922;2.346;2023-03-04T03:20:16;102418.41;;;3.52;63.02
62600;BME280;48671;48.922;2.346;2023-03-04T03:22:42;102413.25;;;3.52;62.83
62600;BME280;48671;48.922;2.346;2023-03-04T03:25:09;102401.19;;;3.48;62.77
62600;BME280;48671;48.922;2.346;2023-03-04T03:27:34;102403.78;;;3.49;62.49
62600;BME280;48671;48.922;2.346;2023-03-04T03:30:00;102401.94;;;3.42;63.27
62600;BME280;48671;48.922;2.346;2023-03-04T03:32:25;102396.66;;;3.35;63.81
62600;BME280;48671;48.922;2.346;2023-03-04T03:34:50;102401.00;;;3.37;63.04
62600;BME280;48671;48.922;2.346;2023-03-04T03:37:17;102417.38;;;3.42;63.01
62600;BME280;48671;48.922;2.346;2023-03-04T03:39:42;102407.94;;;3.43;63.13
62600;BME280;48671;48.922;2.346;2023-03-04T03:42:07;102402.72;;;3.38;62.82
62600;BME280;48671;48.922;2.346;2023-03-04T03:44:33;102408.78;;;3.40;63.38
62600;BME280;48671;48.922;2.346;2023-03-04T03:46:58;102408.75;;;3.39;63.20
62600;BME280;48671;48.922;2.346;2023-03-04T03:49:24;102414.75;;;3.39;63.18
62600;BME280;48671;48.922;2.346;2023-03-04T03:51:49;102389.63;;;3.26;63.23
62600;BME280;48671;48.922;2.346;2023-03-04T03:54:14;102402.56;;;3.29;62.68
62600;BME280;48671;48.922;2.346;2023-03-04T03:56:39;102412.84;;;3.27;63.15
62600;BME280;48671;48.922;2.346;2023-03-04T03:59:05;102418.84;;;3.29;63.31
62600;BME280;48671;48.922;2.346;2023-03-04T04:01:30;102420.50;;;3.24;63.42
62600;BME280;48671;48.922;2.346;2023-03-04T04:03:57;102416.22;;;3.25;63.83
62600;BME280;48671;48.922;2.346;2023-03-04T04:06:23;102403.97;;;3.12;64.13
62600;BME280;48671;48.922;2.346;2023-03-04T04:08:48;102416.88;;;3.16;63.57
62600;BME280;48671;48.922;2.346;2023-03-04T04:11:13;102419.47;;;3.16;63.79
62600;BME280;48671;48.922;2.346;2023-03-04T04:13:39;102414.25;;;3.13;63.28
62600;BME280;48671;48.922;2.346;2023-03-04T04:16:05;102416.81;;;3.13;63.77
62600;BME280;48671;48.922;2.346;2023-03-04T04:18:30;102428.09;;;3.20;63.37
62600;BME280;48671;48.922;2.346;2023-03-04T04:20:55;102428.94;;;3.19;63.61
62600;BME280;48671;48.922;2.346;2023-03-04T04:23:21;102433.25;;;3.20;63.84
62600;BME280;48671;48.922;2.346;2023-03-04T04:25:47;102431.59;;;3.23;63.46
62600;BME280;48671;48.922;2.346;2023-03-04T04:28:12;102425.53;;;3.20;63.07
62600;BME280;48671;48.922;2.346;2023-03-04T04:30:38;102428.28;;;3.29;63.40
62600;BME280;48671;48.922;2.346;2023-03-04T04:33:03;102430.00;;;3.30;63.60
62600;BME280;48671;48.922;2.346;2023-03-04T04:35:33;102429.06;;;3.25;63.14
62600;BME280;48671;48.922;2.346;2023-03-04T04:37:59;102430.00;;;3.30;63.59
62600;BME280;48671;48.922;2.346;2023-03-04T04:40:25;102428.41;;;3.35;63.36
62600;BME280;48671;48.922;2.346;2023-03-04T04:42:50;102429.25;;;3.36;62.72
62600;BME280;48671;48.922;2.346;2023-03-04T04:45:16;102428.41;;;3.37;62.59
62600;BME280;48671;48.922;2.346;2023-03-04T04:47:42;102436.19;;;3.40;62.50
62600;BME280;48671;48.922;2.346;2023-03-04T04:50:08;102441.25;;;3.35;62.46
62600;BME280;48671;48.922;2.346;2023-03-04T04:52:33;102432.50;;;3.25;63.13
62600;BME280;48671;48.922;2.346;2023-03-04T04:54:59;102439.44;;;3.29;63.20
62600;BME280;48671;48.922;2.346;2023-03-04T04:57:24;102446.34;;;3.32;63.12
62600;BME280;48671;48.922;2.346;2023-03-04T04:59:49;102455.78;;;3.33;62.26
62600;BME280;48671;48.922;2.346;2023-03-04T05:02:15;102443.66;;;3.26;62.74
62600;BME280;48671;48.922;2.346;2023-03-04T05:04:40;102449.53;;;3.19;62.92
62600;BME280;48671;48.922;2.346;2023-03-04T05:07:05;102454.72;;;3.22;62.45
62600;BME280;48671;48.922;2.346;2023-03-04T05:09:31;102459.81;;;3.20;63.33
62600;BME280;48671;48.922;2.346;2023-03-04T05:11:56;102449.53;;;3.19;63.27
62600;BME280;48671;48.922;2.346;2023-03-04T05:14:22;102449.44;;;3.14;63.27
62600;BME280;48671;48.922;2.346;2023-03-04T05:16:47;102457.16;;;3.14;63.15
62600;BME280;48671;48.922;2.346;2023-03-04T05:19:12;102450.13;;;3.07;62.49
62600;BME280;48671;48.922;2.346;2023-03-04T05:21:37;102457.00;;;3.07;62.92
62600;BME280;48671;48.922;2.346;2023-03-04T05:24:03;102450.03;;;3.01;62.74
62600;BME280;48671;48.922;2.346;2023-03-04T05:26:29;102451.63;;;2.96;63.31
62600;BME280;48671;48.922;2.346;2023-03-04T05:28:54;102461.13;;;2.98;63.04
62600;BME280;48671;48.922;2.346;2023-03-04T05:31:20;102462.00;;;2.99;62.64
62600;BME280;48671;48.922;2.346;2023-03-04T05:33:45;102456.72;;;2.93;63.42
62600;BME280;48671;48.922;2.346;2023-03-04T05:36:10;102448.75;;;2.80;63.30
62600;BME280;48671;48.922;2.346;2023-03-04T05:38:35;102460.88;;;2.88;63.31
62600;BME280;48671;48.922;2.346;2023-03-04T05:41:03;102471.22;;;2.91;63.51
62600;BME280;48671;48.922;2.346;2023-03-04T05:43:30;102466.03;;;2.88;63.06
62600;BME280;48671;48.922;2.346;2023-03-04T05:45:55;102459.09;;;2.84;63.15
62600;BME280;48671;48.922;2.346;2023-03-04T05:48:21;102462.50;;;2.83;63.19
62600;BME280;48671;48.922;2.346;2023-03-04T05:50:46;102469.34;;;2.82;63.81
62600;BME280;48671;48.922;2.346;2023-03-04T05:53:16;102473.56;;;2.80;63.36
62600;BME280;48671;48.922;2.346;2023-03-04T05:55:45;102470.16;;;2.81;63.44
62600;BME280;48671;48.922;2.346;2023-03-04T05:58:11;102465.00;;;2.78;63.97
62600;BME280;48671;48.922;2.346;2023-03-04T06:00:36;102471.88;;;2.80;63.48
62600;BME280;48671;48.922;2.346;2023-03-04T06:03:02;102470.16;;;2.81;63.10
62600;BME280;48671;48.922;2.346;2023-03-04T06:05:28;102470.91;;;2.75;63.34
62600;BME280;48671;48.922;2.346;2023-03-04T06:07:53;102469.06;;;2.70;63.88
62600;BME280;48671;48.922;2.346;2023-03-04T06:10:19;102478.50;;;2.69;63.72
62600;BME280;48671;48.922;2.346;2023-03-04T06:12:44;102482.84;;;2.72;64.13
62600;BME280;48671;48.922;2.346;2023-03-04T06:15:10;102491.44;;;2.74;63.58
62600;BME280;48671;48.922;2.346;2023-03-04T06:17:37;102497.38;;;2.71;63.83
62600;BME280;48671;48.922;2.346;2023-03-04T06:20:03;102488.72;;;2.68;63.75
62600;BME280;48671;48.922;2.346;2023-03-04T06:22:31;102491.38;;;2.71;63.95
62600;BME280;48671;48.922;2.346;2023-03-04T06:24:56;102481.00;;;2.68;63.71
62600;BME280;48671;48.922;2.346;2023-03-04T06:27:21;102480.94;;;2.63;63.52
62600;BME280;48671;48.922;2.346;2023-03-04T06:29:47;102492.13;;;2.67;63.58
62600;BME280;48671;48.922;2.346;2023-03-04T06:32:12;102488.72;;;2.66;63.85
62600;BME280;48671;48.922;2.346;2023-03-04T06:34:37;102497.38;;;2.71;63.29
62600;BME280;48671;48.922;2.346;2023-03-04T06:37:03;102498.41;;;2.79;64.23
62600;BME280;48671;48.922;2.346;2023-03-04T06:39:28;102505.50;;;2.90;63.93
62600;BME280;48671;48.922;2.346;2023-03-04T06:41:53;102506.44;;;2.93;63.10
62600;BME280;48671;48.922;2.346;2023-03-04T06:44:19;102503.13;;;2.99;63.12
62600;BME280;48671;48.922;2.346;2023-03-04T06:46:44;102508.41;;;3.05;63.49
62600;BME280;48671;48.922;2.346;2023-03-04T06:49:09;102504.19;;;3.09;62.86
62600;BME280;48671;48.922;2.346;2023-03-04T06:51:35;102510.25;;;3.11;63.02
62600;BME280;48671;48.922;2.346;2023-03-04T06:54:00;102511.13;;;3.13;62.82
62600;BME280;48671;48.922;2.346;2023-03-04T06:56:26;102518.97;;;3.17;63.13
62600;BME280;48671;48.922;2.346;2023-03-04T06:58:51;102508.63;;;3.16;62.84
62600;BME280;48671;48.922;2.346;2023-03-04T07:01:20;102517.44;;;3.27;63.00
62600;BME280;48671;48.922;2.346;2023-03-04T07:03:47;102519.22;;;3.31;62.35
62600;BME280;48671;48.922;2.346;2023-03-04T07:06:15;102513.22;;;3.31;63.11
62600;BME280;48671;48.922;2.346;2023-03-04T07:08:42;102509.88;;;3.35;62.35
62600;BME280;48671;48.922;2.346;2023-03-04T07:11:07;102519.38;;;3.39;63.06
62600;BME280;48671;48.922;2.346;2023-03-04T07:13:33;102512.56;;;3.42;62.10
62600;BME280;48671;48.922;2.346;2023-03-04T07:16:09;102516.00;;;3.43;62.66
62600;BME280;48671;48.922;2.346;2023-03-04T07:18:35;102528.22;;;3.51;62.89
62600;BME280;48671;48.922;2.346;2023-03-04T07:21:01;102529.13;;;3.55;62.25
62600;BME280;48671;48.922;2.346;2023-03-04T07:23:26;102530.91;;;3.59;62.30
62600;BME280;48671;48.922;2.346;2023-03-04T07:25:51;102518.03;;;3.59;62.06
62600;BME280;48671;48.922;2.346;2023-03-04T07:28:17;102529.38;;;3.67;62.25
62600;BME280;48671;48.922;2.346;2023-03-04T07:30:43;102520.81;;;3.68;61.99
62600;BME280;48671;48.922;2.346;2023-03-04T07:33:08;102530.53;;;3.83;62.01
62600;BME280;48671;48.922;2.346;2023-03-04T07:35:33;102530.16;;;4.12;61.62
62600;BME280;48671;48.922;2.346;2023-03-04T07:37:59;102524.56;;;4.37;61.22
62600;BME280;48671;48.922;2.346;2023-03-04T07:40:24;102532.84;;;4.73;60.38
62600;BME280;48671;48.922;2.346;2023-03-04T07:42:54;102542.88;;;5.15;59.62
62600;BME280;48671;48.922;2.346;2023-03-04T07:45:20;102538.94;;;5.45;59.39
62600;BME280;48671;48.922;2.346;2023-03-04T07:47:46;102542.66;;;5.67;58.43
62600;BME280;48671;48.922;2.346;2023-03-04T07:50:12;102529.00;;;5.81;57.75
62600;BME280;48671;48.922;2.346;2023-03-04T07:52:43;102539.50;;;5.94;57.92
62600;BME280;48671;48.922;2.346;2023-03-04T07:55:09;102537.84;;;5.99;57.57
62600;BME280;48671;48.922;2.346;2023-03-04T07:57:34;102535.91;;;5.79;57.44
62600;BME280;48671;48.922;2.346;2023-03-04T08:00:02;102539.94;;;5.53;57.42
62600;BME280;48671;48.922;2.346;2023-03-04T08:02:28;102550.03;;;5.34;58.08
62600;BME280;48671;48.922;2.346;2023-03-04T08:04:53;102542.84;;;5.10;58.43
62600;BME280;48671;48.922;2.346;2023-03-04T08:07:18;102556.47;;;5.02;59.12
62600;BME280;48671;48.922;2.346;2023-03-04T08:09:43;102558.91;;;4.91;59.14
62600;BME280;48671;48.922;2.346;2023-03-04T08:12:09;102560.53;;;4.84;58.89
62600;BME280;48671;48.922;2.346;2023-03-04T08:14:34;102564.75;;;4.79;59.43
62600;BME280;48671;48.922;2.346;2023-03-04T08:17:00;102556.06;;;4.73;59.59
62600;BME280;48671;48.922;2.346;2023-03-04T08:19:25;102565.50;;;4.74;59.35
62600;BME280;48671;48.922;2.346;2023-03-04T08:21:50;102564.75;;;4.78;59.70
62600;BME280;48671;48.922;2.346;2023-03-04T08:24:16;102562.94;;;4.74;59.76
62600;BME280;48671;48.922;2.346;2023-03-04T08:26:44;102569.91;;;4.78;59.73
62600;BME280;48671;48.922;2.346;2023-03-04T08:29:12;102556.03;;;4.71;59.66
62600;BME280;48671;48.922;2.346;2023-03-04T08:31:38;102573.38;;;4.81;59.97
62600;BME280;48671;48.922;2.346;2023-03-04T08:34:04;102571.66;;;4.83;59.65
62600;BME280;48671;48.922;2.346;2023-03-04T08:36:30;102570.84;;;4.86;60.03
62600;BME280;48671;48.922;2.346;2023-03-04T08:38:55;102569.19;;;4.88;60.25
62600;BME280;48671;48.922;2.346;2023-03-04T08:41:21;102577.88;;;4.95;59.63
62600;BME280;48671;48.922;2.346;2023-03-04T08:43:47;102570.13;;;4.96;59.52
62600;BME280;48671;48.922;2.346;2023-03-04T08:46:12;102569.38;;;5.03;60.21
62600;BME280;48671;48.922;2.346;2023-03-04T08:48:38;102567.75;;;5.08;59.34
62600;BME280;48671;48.922;2.346;2023-03-04T08:51:11;102553.97;;;5.08;59.74
62600;BME280;48671;48.922;2.346;2023-03-04T08:53:37;102558.28;;;5.07;59.51
62600;BME280;48671;48.922;2.346;2023-03-04T08:56:03;102567.84;;;5.14;59.69
62600;BME280;48671;48.922;2.346;2023-03-04T08:58:29;102571.25;;;5.13;59.32
62600;BME280;48671;48.922;2.346;2023-03-04T09:00:54;102578.19;;;5.19;59.81
62600;BME280;48671;48.922;2.346;2023-03-04T09:03:19;102577.41;;;5.23;59.40
62600;BME280;48671;48.922;2.346;2023-03-04T09:05:46;102560.13;;;5.19;59.34
62600;BME280;48671;48.922;2.346;2023-03-04T09:08:13;102570.50;;;5.22;59.12
62600;BME280;48671;48.922;2.346;2023-03-04T09:10:39;102583.44;;;5.24;59.12
62600;BME280;48671;48.922;2.346;2023-03-04T09:13:05;102574.75;;;5.17;59.18
62600;BME280;48671;48.922;2.346;2023-03-04T09:15:31;102585.13;;;5.22;59.08
62600;BME280;48671;48.922;2.346;2023-03-04T09:18:01;102584.31;;;5.26;58.96
62600;BME280;48671;48.922;2.346;2023-03-04T09:20:27;102571.41;;;5.26;59.54
62600;BME280;48671;48.922;2.346;2023-03-04T09:22:52;102588.72;;;5.34;59.23
62600;BME280;48671;48.922;2.346;2023-03-04T09:25:17;102582.72;;;5.35;59.33
62600;BME280;48671;48.922;2.346;2023-03-04T09:27:43;102571.56;;;5.38;58.83
62600;BME280;48671;48.922;2.346;2023-03-04T09:30:08;102588.00;;;5.43;58.66
62600;BME280;48671;48.922;2.346;2023-03-04T09:32:34;102588.88;;;5.45;58.74
62600;BME280;48671;48.922;2.346;2023-03-04T09:34:59;102587.13;;;5.46;58.90
62600;BME280;48671;48.922;2.346;2023-03-04T09:37:24;102585.47;;;5.48;58.99
62600;BME280;48671;48.922;2.346;2023-03-04T09:39:50;102590.66;;;5.51;58.81
62600;BME280;48671;48.922;2.346;2023-03-04T09:42:29;102583.81;;;5.53;58.57
62600;BME280;48671;48.922;2.346;2023-03-04T09:44:58;102582.19;;;5.59;58.84
62600;BME280;48671;48.922;2.346;2023-03-04T09:47:24;102588.16;;;5.58;58.70
62600;BME280;48671;48.922;2.346;2023-03-04T09:50:03;102588.25;;;5.63;58.70
62600;BME280;48671;48.922;2.346;2023-03-04T09:52:48;102579.63;;;5.62;58.69
62600;BME280;48671;48.922;2.346;2023-03-04T09:55:29;102595.25;;;5.73;58.86
62600;BME280;48671;48.922;2.346;2023-03-04T09:58:01;102596.09;;;5.74;58.53
62600;BME280;48671;48.922;2.346;2023-03-04T10:00:50;102603.88;;;5.77;59.08
62600;BME280;48671;48.922;2.346;2023-03-04T10:03:19;102595.25;;;5.73;58.45
62600;BME280;48671;48.922;2.346;2023-03-04T10:08:39;102584.91;;;5.75;59.31
62600;BME280;48671;48.922;2.346;2023-03-04T10:11:12;102582.34;;;5.76;58.86
62600;BME280;48671;48.922;2.346;2023-03-04T10:16:35;102592.75;;;5.84;58.70
62600;BME280;48671;48.922;2.346;2023-03-04T10:21:42;102591.13;;;5.89;58.86
62600;BME280;48671;48.922;2.346;2023-03-04T10:24:17;102585.16;;;5.95;58.50
62600;BME280;48671;48.922;2.346;2023-03-04T10:26:45;102586.06;;;5.97;58.52
62600;BME280;48671;48.922;2.346;2023-03-04T10:29:15;102571.31;;;5.91;58.50
62600;BME280;48671;48.922;2.346;2023-03-04T10:31:41;102575.66;;;5.92;58.37
62600;BME280;48671;48.922;2.346;2023-03-04T10:34:11;102571.41;;;5.96;58.72
62600;BME280;48671;48.922;2.346;2023-03-04T10:36:48;102565.41;;;6.00;58.78
62600;BME280;48671;48.922;2.346;2023-03-04T10:41:58;102571.50;;;6.05;58.68
62600;BME280;48671;48.922;2.346;2023-03-04T10:44:24;102570.69;;;6.09;58.43
62600;BME280;48671;48.922;2.346;2023-03-04T10:46:52;102570.69;;;6.09;58.59
62600;BME280;48671;48.922;2.346;2023-03-04T10:49:19;102569.81;;;6.08;58.71
62600;BME280;48671;48.922;2.346;2023-03-04T10:57:03;102565.56;;;6.17;58.61
62600;BME280;48671;48.922;2.346;2023-03-04T10:59:54;102564.75;;;6.19;58.36
62600;BME280;48671;48.922;2.346;2023-03-04T11:02:34;102550.91;;;6.17;58.78
62600;BME280;48671;48.922;2.346;2023-03-04T11:05:20;102555.25;;;6.20;58.54
62600;BME280;48671;48.922;2.346;2023-03-04T11:07:58;102550.13;;;6.23;58.88
62600;BME280;48671;48.922;2.346;2023-03-04T11:16:03;102550.16;;;6.27;58.60
62600;BME280;48671;48.922;2.346;2023-03-04T11:21:06;102541.59;;;6.33;58.33
62600;BME280;48671;48.922;2.346;2023-03-04T11:23:55;102541.63;;;6.36;58.37
62600;BME280;48671;48.922;2.346;2023-03-04T11:27:19;102537.34;;;6.43;58.45
62600;BME280;48671;48.922;2.346;2023-03-04T11:29:29;102538.22;;;6.43;58.35
62600;BME280;48671;48.922;2.346;2023-03-04T11:32:03;102533.06;;;6.45;58.36
62600;BME280;48671;48.922;2.346;2023-03-04T11:34:36;102522.78;;;6.51;58.09
62600;BME280;48671;48.922;2.346;2023-03-04T11:39:51;102515.88;;;6.53;58.24
62600;BME280;48671;48.922;2.346;2023-03-04T11:42:41;102514.16;;;6.52;58.08
62600;BME280;48671;48.922;2.346;2023-03-04T11:45:13;102515.03;;;6.54;58.14
62600;BME280;48671;48.922;2.346;2023-03-04T11:53:18;102505.56;;;6.59;57.59
62600;BME280;48671;48.922;2.346;2023-03-04T12:04:26;102501.34;;;6.69;58.13
62600;BME280;48671;48.922;2.346;2023-03-04T12:14:44;102495.34;;;6.77;57.87
62600;BME280;48671;48.922;2.346;2023-03-04T12:17:32;102494.53;;;6.85;57.54
62600;BME280;48671;48.922;2.346;2023-03-04T12:25:36;102480.78;;;6.95;56.97
62600;BME280;48671;48.922;2.346;2023-03-04T12:35:51;102479.09;;;7.08;56.96
62600;BME280;48671;48.922;2.346;2023-03-04T12:44:15;102473.09;;;7.10;56.70
62600;BME280;48671;48.922;2.346;2023-03-04T12:46:59;102473.09;;;7.10;56.61
62600;BME280;48671;48.922;2.346;2023-03-04T12:52:14;102472.22;;;7.16;56.51
62600;BME280;48671;48.922;2.346;2023-03-04T12:54:48;102461.84;;;7.11;56.61
62600;BME280;48671;48.922;2.346;2023-03-04T12:57:21;102465.31;;;7.12;56.78
62600;BME280;48671;48.922;2.346;2023-03-04T12:59:56;102455.84;;;7.14;57.43
62600;BME280;48671;48.922;2.346;2023-03-04T13:02:41;102456.69;;;7.16;57.24
62600;BME280;48671;48.922;2.346;2023-03-04T13:05:37;102444.66;;;7.19;56.95
62600;BME280;48671;48.922;2.346;2023-03-04T13:11:01;102441.19;;;7.23;56.62
62600;BME280;48671;48.922;2.346;2023-03-04T13:16:14;102436.88;;;7.28;57.21
62600;BME280;48671;48.922;2.346;2023-03-04T13:18:50;102426.50;;;7.21;56.36
62600;BME280;48671;48.922;2.346;2023-03-04T13:23:44;102421.34;;;7.24;57.01
62600;BME280;48671;48.922;2.346;2023-03-04T13:26:18;102426.53;;;7.28;56.66
62600;BME280;48671;48.922;2.346;2023-03-04T13:28:46;102414.44;;;7.32;57.22
62600;BME280;48671;48.922;2.346;2023-03-04T13:31:18;102415.31;;;7.31;56.54
62600;BME280;48671;48.922;2.346;2023-03-04T13:33:49;102402.38;;;7.28;56.69
62600;BME280;48671;48.922;2.346;2023-03-04T13:38:58;102406.69;;;7.32;56.63
62600;BME280;48671;48.922;2.346;2023-03-04T13:41:48;102404.09;;;7.27;56.66
62600;BME280;48671;48.922;2.346;2023-03-04T13:47:14;102398.06;;;7.33;56.87
62600;BME280;48671;48.922;2.346;2023-03-04T13:49:40;102404.09;;;7.38;56.96
62600;BME280;48671;48.922;2.346;2023-03-04T13:52:39;102398.94;;;7.44;57.10
62600;BME280;48671;48.922;2.346;2023-03-04T13:58:01;102397.22;;;7.46;56.72
62600;BME280;48671;48.922;2.346;2023-03-04T14:00:27;102395.47;;;7.45;55.93
62600;BME280;48671;48.922;2.346;2023-03-04T14:02:53;102395.50;;;7.42;56.20
62600;BME280;48671;48.922;2.346;2023-03-04T14:05:18;102397.22;;;7.45;56.23
62600;BME280;48671;48.922;2.346;2023-03-04T14:07:44;102395.47;;;7.45;56.27
62600;BME280;48671;48.922;2.346;2023-03-04T14:15:22;102389.44;;;7.54;56.41
62600;BME280;48671;48.922;2.346;2023-03-04T14:17:51;102380.81;;;7.55;56.39
62600;BME280;48671;48.922;2.346;2023-03-04T14:22:54;102385.13;;;7.58;56.43
62600;BME280;48671;48.922;2.346;2023-03-04T14:27:48;102381.69;;;7.49;56.42
62600;BME280;48671;48.922;2.346;2023-03-04T14:30:24;102378.25;;;7.57;56.30
62600;BME280;48671;48.922;2.346;2023-03-04T14:32:55;102373.91;;;7.62;55.96
62600;BME280;48671;48.922;2.346;2023-03-04T14:35:24;102374.78;;;7.61;55.47
62600;BME280;48671;48.922;2.346;2023-03-04T14:40:27;102366.16;;;7.60;55.36
62600;BME280;48671;48.922;2.346;2023-03-04T14:43:02;102354.94;;;7.60;55.93
62600;BME280;48671;48.922;2.346;2023-03-04T14:45:29;102360.09;;;7.63;55.60
62600;BME280;48671;48.922;2.346;2023-03-04T14:48:00;102353.19;;;7.60;55.78
62600;BME280;48671;48.922;2.346;2023-03-04T14:50:29;102336.78;;;7.55;55.86